Time;durP1;ratioP1;P1;durP2;ratioP2;P2;SDS_P1;SDS_P2;PMS_P1;PMS_P2;Temp;Humidity;BMP_temperature;BMP_pressure;BME280_temperature;BME280_humidity;BME280_pressure;Samples;Min_cycle;Max_cycle;Signal;HPM_P1;HPM_P2
2022/01/11 00:01:44;;;;;;;18.90;10.60;;;0.80;99.90;;;;;;4947196;28;20055;-68
2022/01/11 00:04:12;;;;;;;19.57;11.27;;;0.80;99.90;;;;;;4943436;28;20464;-68
2022/01/11 00:06:45;;;;;;;21.42;11.77;;;0.80;99.90;;;;;;4936649;28;20187;-68
2022/01/11 00:09:29;;;;;;;23.25;11.15;;;0.80;99.90;;;;;;4940975;28;20039;-68
2022/01/11 00:11:55;;;;;;;23.13;11.23;;;0.80;99.90;;;;;;4938586;28;20464;-68
2022/01/11 00:14:20;;;;;;;21.03;11.93;;;0.80;99.90;;;;;;4941787;28;21692;-68
2022/01/11 00:16:46;;;;;;;24.93;11.97;;;0.80;99.90;;;;;;4948247;28;20047;-68
2022/01/11 00:19:13;;;;;;;23.07;11.80;;;0.80;99.90;;;;;;4942019;28;20126;-68
2022/01/11 00:21:45;;;;;;;25.27;11.85;;;0.80;99.90;;;;;;4929779;29;20047;-68
2022/01/11 00:24:28;;;;;;;24.25;11.73;;;0.80;99.90;;;;;;4951122;28;20660;-68
2022/01/11 00:26:58;;;;;;;20.88;11.93;;;0.90;99.90;;;;;;4944759;29;20127;-67
2022/01/11 00:29:28;;;;;;;23.50;11.40;;;0.90;99.90;;;;;;4945105;28;20044;-68
2022/01/11 00:31:56;;;;;;;22.38;12.27;;;0.80;99.90;;;;;;4952071;28;20043;-67
2022/01/11 00:34:23;;;;;;;18.45;10.70;;;0.80;99.90;;;;;;4949242;28;20158;-67
2022/01/11 00:36:49;;;;;;;25.13;12.05;;;0.80;99.90;;;;;;4957507;28;20085;-68
2022/01/11 00:39:17;;;;;;;18.10;10.53;;;0.90;99.90;;;;;;4945973;28;20126;-68
2022/01/11 00:41:44;;;;;;;23.70;11.60;;;0.80;99.90;;;;;;4948343;28;20046;-68
2022/01/11 00:44:11;;;;;;;25.52;11.32;;;0.80;99.90;;;;;;4950637;28;20101;-68
2022/01/11 00:46:38;;;;;;;29.52;12.25;;;0.80;99.90;;;;;;4938614;28;20377;-68
2022/01/11 00:49:04;;;;;;;21.20;11.52;;;0.80;99.90;;;;;;4956075;28;20041;-67
2022/01/11 00:51:32;;;;;;;21.10;11.43;;;0.80;99.90;;;;;;4947843;28;20118;-66
2022/01/11 00:53:58;;;;;;;22.08;11.30;;;0.80;99.90;;;;;;4924712;28;20536;-67
2022/01/11 00:56:24;;;;;;;25.40;11.03;;;0.80;99.90;;;;;;4946654;28;20091;-66
2022/01/11 00:58:49;;;;;;;21.23;10.48;;;0.80;99.90;;;;;;4937566;28;20162;-66
2022/01/11 01:01:17;;;;;;;20.37;10.33;;;0.80;99.90;;;;;;4945575;28;20429;-66
2022/01/11 01:03:43;;;;;;;23.95;12.05;;;0.80;99.90;;;;;;4949194;28;20328;-67
2022/01/11 01:06:09;;;;;;;25.37;11.47;;;0.80;99.90;;;;;;4946494;28;20040;-66
2022/01/11 01:08:35;;;;;;;24.65;10.48;;;0.80;99.90;;;;;;4942934;28;20122;-66
2022/01/11 01:11:00;;;;;;;18.63;9.80;;;0.80;99.90;;;;;;4946179;28;20118;-67
2022/01/11 01:13:28;;;;;;;17.50;9.57;;;0.80;99.90;;;;;;4949178;28;20063;-67
2022/01/11 01:15:55;;;;;;;18.63;11.30;;;0.80;99.90;;;;;;4947779;28;20051;-68
2022/01/11 01:18:24;;;;;;;20.83;10.43;;;0.80;99.90;;;;;;4945702;28;20054;-68
2022/01/11 01:20:52;;;;;;;28.38;12.05;;;0.90;99.90;;;;;;4944351;28;20468;-67
2022/01/11 01:23:19;;;;;;;16.90;9.88;;;0.80;99.90;;;;;;4933529;28;20047;-67
2022/01/11 01:25:45;;;;;;;19.25;10.20;;;0.80;99.90;;;;;;4940794;28;20051;-66
2022/01/11 01:28:11;;;;;;;22.98;10.63;;;0.80;99.90;;;;;;4937994;28;20032;-66
2022/01/11 01:30:40;;;;;;;24.00;11.15;;;0.80;99.90;;;;;;4942254;28;20043;-67
2022/01/11 01:33:06;;;;;;;20.40;10.43;;;0.80;99.90;;;;;;4932710;28;20452;-66
2022/01/11 01:35:39;;;;;;;20.60;11.77;;;0.80;99.90;;;;;;4943147;28;20130;-67
2022/01/11 01:38:05;;;;;;;23.80;11.65;;;0.80;99.90;;;;;;4936113;28;20381;-67
2022/01/11 01:40:37;;;;;;;28.42;11.77;;;0.80;99.90;;;;;;4940389;28;20142;-66
2022/01/11 01:43:05;;;;;;;31.15;12.40;;;0.80;99.90;;;;;;4941489;28;20031;-67
2022/01/11 01:45:30;;;;;;;25.30;11.80;;;0.80;99.90;;;;;;4938774;28;20129;-66
2022/01/11 01:47:58;;;;;;;24.40;12.40;;;0.80;99.90;;;;;;4948412;28;20454;-67
2022/01/11 01:50:25;;;;;;;23.30;12.40;;;0.80;99.90;;;;;;4949194;28;20514;-66
2022/01/11 01:52:51;;;;;;;23.13;11.50;;;0.80;99.90;;;;;;4939163;28;20051;-66
2022/01/11 01:55:17;;;;;;;23.10;11.40;;;0.80;99.90;;;;;;4945958;28;20112;-67
2022/01/11 01:57:43;;;;;;;25.65;11.27;;;0.80;99.90;;;;;;4929364;28;20380;-66
2022/01/11 02:00:12;;;;;;;18.40;10.17;;;0.80;99.90;;;;;;4951099;28;20127;-67
2022/01/11 02:02:39;;;;;;;23.52;11.23;;;0.80;99.90;;;;;;4943447;28;20048;-66
2022/01/11 02:05:07;;;;;;;26.55;11.25;;;0.80;99.90;;;;;;4941245;28;20444;-67
2022/01/11 02:07:34;;;;;;;24.80;11.45;;;0.80;99.90;;;;;;4948314;28;20047;-67
2022/01/11 02:10:01;;;;;;;21.05;10.10;;;0.80;99.90;;;;;;4938252;28;20154;-66
2022/01/11 02:12:29;;;;;;;24.75;11.55;;;0.80;99.90;;;;;;4947608;28;20181;-67
2022/01/11 02:14:55;;;;;;;20.90;10.68;;;0.80;99.90;;;;;;4951141;28;20058;-67
2022/01/11 02:17:21;;;;;;;24.07;10.77;;;0.80;99.90;;;;;;4951909;28;20055;-66
2022/01/11 02:19:47;;;;;;;20.50;11.70;;;0.80;99.90;;;;;;4939418;28;20134;-67
2022/01/11 02:22:12;;;;;;;20.00;10.37;;;0.80;99.90;;;;;;4947187;28;20130;-66
2022/01/11 02:24:40;;;;;;;19.67;10.63;;;0.80;99.90;;;;;;4938938;28;20039;-66
2022/01/11 02:27:06;;;;;;;19.65;11.07;;;0.80;99.90;;;;;;4940949;28;20046;-67
2022/01/11 02:29:32;;;;;;;24.93;11.97;;;0.90;99.90;;;;;;4946836;28;20456;-67
2022/01/11 02:31:57;;;;;;;22.90;10.47;;;0.80;99.90;;;;;;4937146;28;20207;-67
2022/01/11 02:34:23;;;;;;;23.00;11.00;;;0.80;99.90;;;;;;4938169;28;20157;-67
2022/01/11 02:36:49;;;;;;;23.13;11.03;;;0.80;99.90;;;;;;4942974;28;20463;-68
2022/01/11 02:39:14;;;;;;;21.40;11.60;;;0.80;99.90;;;;;;4943690;28;20048;-67
2022/01/11 02:41:52;;;;;;;27.57;11.47;;;0.80;99.90;;;;;;4940114;28;20051;-68
2022/01/11 02:44:17;;;;;;;24.30;12.20;;;0.90;99.90;;;;;;4946877;28;20047;-68
2022/01/11 02:46:43;;;;;;;28.63;13.10;;;0.80;99.90;;;;;;4943546;29;20047;-66
2022/01/11 02:49:08;;;;;;;20.87;11.27;;;0.80;99.90;;;;;;4950604;28;20038;-67
2022/01/11 02:51:34;;;;;;;27.57;13.07;;;0.90;99.90;;;;;;4944653;28;20639;-68
2022/01/11 02:54:00;;;;;;;27.70;13.27;;;0.80;99.90;;;;;;4945422;28;20496;-68
2022/01/11 02:56:26;;;;;;;30.10;13.35;;;0.80;99.90;;;;;;4954491;28;20043;-68
2022/01/11 02:58:52;;;;;;;31.98;12.85;;;0.80;99.90;;;;;;4941359;28;20130;-68
2022/01/11 03:01:20;;;;;;;26.87;12.90;;;0.80;99.90;;;;;;4936551;28;20189;-68
2022/01/11 03:03:47;;;;;;;26.67;12.93;;;0.80;99.90;;;;;;4941881;28;20314;-68
2022/01/11 03:06:13;;;;;;;27.08;11.82;;;0.80;99.90;;;;;;4942665;28;20519;-68
2022/01/11 03:08:42;;;;;;;28.88;11.60;;;0.80;99.90;;;;;;4936263;28;20440;-66
2022/01/11 03:11:12;;;;;;;26.65;12.43;;;0.80;99.90;;;;;;4946557;28;20045;-67
2022/01/11 03:13:40;;;;;;;26.25;13.35;;;0.80;99.90;;;;;;4939217;28;20146;-68
2022/01/11 03:16:06;;;;;;;34.00;13.50;;;0.80;99.90;;;;;;4950464;28;20563;-68
2022/01/11 03:18:32;;;;;;;31.23;13.90;;;0.80;99.90;;;;;;4941805;28;20053;-68
2022/01/11 03:20:58;;;;;;;26.20;13.23;;;0.80;99.90;;;;;;4948158;28;20039;-68
2022/01/11 03:23:24;;;;;;;24.67;12.27;;;0.80;99.90;;;;;;4938761;28;20388;-68
2022/01/11 03:25:51;;;;;;;33.97;14.35;;;0.80;99.90;;;;;;4941294;28;20468;-68
2022/01/11 03:28:18;;;;;;;31.98;14.55;;;0.80;99.90;;;;;;4950690;28;20144;-68
2022/01/11 03:30:45;;;;;;;37.92;15.02;;;0.80;99.90;;;;;;4944390;28;20036;-68
2022/01/11 03:33:11;;;;;;;30.63;14.43;;;0.90;99.90;;;;;;4949165;28;20083;-68
2022/01/11 03:35:38;;;;;;;33.85;14.32;;;0.90;99.90;;;;;;4932837;29;20163;-68
2022/01/11 03:38:09;;;;;;;30.20;14.38;;;0.90;99.90;;;;;;4947963;29;20424;-68
2022/01/11 03:40:35;;;;;;;35.00;13.30;;;0.90;99.90;;;;;;4946520;28;20050;-68
2022/01/11 03:43:01;;;;;;;;;;;0.80;99.90;;;;;;4948037;28;20063;-68
2022/01/11 03:45:27;;;;;;;33.05;14.07;;;0.90;99.90;;;;;;4950649;28;20024;-68
2022/01/11 03:47:56;;;;;;;27.98;13.05;;;0.90;99.90;;;;;;4952012;28;20512;-68
2022/01/11 03:50:22;;;;;;;37.20;15.10;;;0.90;99.90;;;;;;4945557;28;20043;-68
2022/01/11 03:52:57;;;;;;;32.35;14.35;;;0.90;99.90;;;;;;4949582;28;20047;-68
2022/01/11 03:55:32;;;;;;;27.23;13.82;;;0.90;99.90;;;;;;4964059;28;20135;-68
2022/01/11 03:57:58;;;;;;;42.20;15.50;;;0.90;99.90;;;;;;4937913;28;20053;-68
2022/01/11 04:00:23;;;;;;;32.57;15.63;;;0.90;99.90;;;;;;4949863;28;20370;-68
2022/01/11 04:02:49;;;;;;;32.93;13.77;;;0.90;99.90;;;;;;4948482;28;20039;-68
2022/01/11 04:05:15;;;;;;;33.00;15.10;;;0.90;99.90;;;;;;4954766;28;20043;-67
2022/01/11 04:07:41;;;;;;;35.72;14.88;;;0.90;99.90;;;;;;4941411;28;20055;-68
2022/01/11 04:10:08;;;;;;;36.90;14.63;;;0.90;99.90;;;;;;4947835;28;20242;-67
2022/01/11 04:12:34;;;;;;;40.20;16.02;;;0.90;99.90;;;;;;4949416;28;20062;-68
2022/01/11 04:15:00;;;;;;;34.13;17.40;;;0.90;99.90;;;;;;4940213;28;20047;-68
2022/01/11 04:17:25;;;;;;;35.20;14.77;;;0.90;99.90;;;;;;4943739;28;20139;-68
2022/01/11 04:19:52;;;;;;;35.23;14.40;;;0.90;99.90;;;;;;4947620;28;20118;-68
2022/01/11 04:22:18;;;;;;;33.88;15.65;;;1.00;99.90;;;;;;4945913;29;20047;-68
2022/01/11 04:24:44;;;;;;;36.58;15.40;;;0.90;99.90;;;;;;4948219;28;20130;-68
2022/01/11 04:27:10;;;;;;;37.23;14.20;;;1.00;99.90;;;;;;4946947;28;20118;-68
2022/01/11 04:29:35;;;;;;;29.40;13.70;;;1.00;99.90;;;;;;4949615;28;20074;-68
2022/01/11 04:32:01;;;;;;;33.53;14.67;;;1.00;99.90;;;;;;4946841;28;20035;-68
2022/01/11 04:34:28;;;;;;;38.50;14.57;;;1.00;99.90;;;;;;4949753;28;20126;-68
2022/01/11 04:36:54;;;;;;;37.00;15.20;;;1.00;99.90;;;;;;4947878;28;20070;-68
2022/01/11 04:39:20;;;;;;;36.88;15.45;;;1.00;99.90;;;;;;4946638;28;20039;-68
2022/01/11 04:41:46;;;;;;;37.60;17.30;;;1.00;99.90;;;;;;4950334;28;20035;-68
2022/01/11 04:44:11;;;;;;;30.40;14.70;;;1.00;99.90;;;;;;4943892;29;20396;-68
2022/01/11 04:46:37;;;;;;;33.53;14.07;;;1.00;99.90;;;;;;4945983;28;20057;-67
2022/01/11 04:49:03;;;;;;;31.47;14.47;;;1.00;99.90;;;;;;4951982;28;20065;-68
2022/01/11 04:51:29;;;;;;;35.10;15.02;;;1.10;99.90;;;;;;4944587;28;20058;-68
2022/01/11 04:53:56;;;;;;;31.10;14.77;;;1.00;99.90;;;;;;4944182;28;20043;-67
2022/01/11 04:56:22;;;;;;;44.72;15.98;;;1.00;99.90;;;;;;4947058;28;20137;-68
2022/01/11 04:58:48;;;;;;;38.83;16.13;;;1.10;99.90;;;;;;4941690;28;20051;-68
2022/01/11 05:01:14;;;;;;;38.97;16.17;;;1.10;99.90;;;;;;4942495;28;20044;-68
2022/01/11 05:03:39;;;;;;;39.07;15.57;;;1.00;99.90;;;;;;4947202;28;20039;-68
2022/01/11 05:06:05;;;;;;;34.60;14.50;;;1.00;99.90;;;;;;4945710;28;20121;-68
2022/01/11 05:08:31;;;;;;;40.00;16.03;;;1.00;99.90;;;;;;4940880;28;20035;-68
2022/01/11 05:10:57;;;;;;;38.05;15.93;;;1.00;99.90;;;;;;4946412;28;20043;-68
2022/01/11 05:13:22;;;;;;;31.53;15.03;;;1.00;99.90;;;;;;4942964;29;20083;-68
2022/01/11 05:15:48;;;;;;;36.20;15.47;;;1.00;99.90;;;;;;4944308;28;20567;-68
2022/01/11 05:18:14;;;;;;;38.20;15.50;;;1.00;99.90;;;;;;4940014;28;20118;-68
2022/01/11 05:20:41;;;;;;;44.13;15.65;;;1.00;99.90;;;;;;4951466;28;20041;-69
2022/01/11 05:23:07;;;;;;;36.85;14.80;;;0.90;99.90;;;;;;4940561;28;20092;-66
2022/01/11 05:25:33;;;;;;;29.75;13.57;;;1.00;99.90;;;;;;4942014;28;20070;-66
2022/01/11 05:27:59;;;;;;;32.90;13.90;;;1.00;99.90;;;;;;4946753;29;20267;-66
2022/01/11 05:30:26;;;;;;;33.37;14.70;;;0.90;99.90;;;;;;4946509;28;20185;-67
2022/01/11 05:32:52;;;;;;;34.03;15.60;;;0.90;99.90;;;;;;4942173;28;20051;-67
2022/01/11 05:35:20;;;;;;;38.38;14.23;;;0.90;99.90;;;;;;4938680;28;20122;-66
2022/01/11 05:37:46;;;;;;;38.03;14.45;;;0.90;99.90;;;;;;4943272;28;20043;-66
2022/01/11 05:40:13;;;;;;;33.90;14.57;;;1.00;99.90;;;;;;4964574;23;20083;-70
2022/01/11 05:42:42;;;;;;;32.22;13.85;;;0.90;99.90;;;;;;4967422;28;20496;-70
2022/01/11 05:45:09;;;;;;;30.67;13.45;;;1.00;99.90;;;;;;4944743;28;20039;-70
2022/01/11 05:47:35;;;;;;;36.25;14.27;;;0.90;99.90;;;;;;4962263;28;20047;-70
2022/01/11 05:50:03;;;;;;;26.58;12.00;;;0.90;99.90;;;;;;4949674;28;20047;-69
2022/01/11 05:52:28;;;;;;;31.45;13.10;;;0.90;99.90;;;;;;4948522;28;20054;-69
2022/01/11 05:54:54;;;;;;;30.20;14.20;;;0.90;99.90;;;;;;4965813;28;20039;-70
2022/01/11 05:57:20;;;;;;;29.33;13.47;;;0.90;99.90;;;;;;4952262;28;20049;-70
2022/01/11 05:59:45;;;;;;;31.70;13.87;;;0.90;99.90;;;;;;4949100;28;20393;-70
2022/01/11 06:02:11;;;;;;;29.17;12.57;;;0.90;99.90;;;;;;4950697;28;20031;-69
2022/01/11 06:04:39;;;;;;;30.50;11.98;;;0.90;99.90;;;;;;4950377;28;20510;-69
2022/01/11 06:07:04;;;;;;;32.63;12.03;;;0.90;99.90;;;;;;4964492;28;20090;-70
2022/01/11 06:09:30;;;;;;;23.70;11.17;;;0.90;99.90;;;;;;4947447;28;20043;-69
2022/01/11 06:11:56;;;;;;;28.00;11.83;;;0.90;99.90;;;;;;4951426;28;20062;-69
2022/01/11 06:14:22;;;;;;;26.37;12.80;;;0.90;99.90;;;;;;4950925;28;20253;-69
2022/01/11 06:16:48;;;;;;;24.38;11.63;;;0.90;99.90;;;;;;4953055;28;20035;-69
2022/01/11 06:19:14;;;;;;;26.90;11.30;;;0.90;99.90;;;;;;4942256;29;20054;-69
2022/01/11 06:21:40;;;;;;;29.30;11.98;;;0.90;99.90;;;;;;4948980;28;20045;-69
2022/01/11 06:24:07;;;;;;;27.97;12.03;;;0.90;99.90;;;;;;4957759;28;20035;-69
2022/01/11 06:26:33;;;;;;;29.10;12.40;;;0.90;99.90;;;;;;4946982;28;20594;-70
2022/01/11 06:29:00;;;;;;;32.33;13.20;;;0.90;99.90;;;;;;4950403;28;20108;-69
2022/01/11 06:31:26;;;;;;;31.63;11.93;;;0.90;99.90;;;;;;4949868;28;20043;-70
2022/01/11 06:33:51;;;;;;;33.63;11.40;;;0.90;99.90;;;;;;4962780;28;20041;-69
2022/01/11 06:36:18;;;;;;;25.70;10.77;;;0.80;99.90;;;;;;4954383;28;20094;-70
2022/01/11 06:38:45;;;;;;;28.80;11.07;;;0.80;99.90;;;;;;4947897;28;20113;-70
2022/01/11 06:41:11;;;;;;;28.35;11.07;;;0.80;99.90;;;;;;4948541;28;20031;-70
2022/01/11 06:43:37;;;;;;;27.77;11.97;;;0.80;99.90;;;;;;4946991;28;20447;-70
2022/01/11 06:46:04;;;;;;;23.95;10.07;;;0.80;99.90;;;;;;4947698;29;20047;-70
2022/01/11 06:48:32;;;;;;;25.83;11.80;;;0.80;99.90;;;;;;4928982;29;20303;-70
2022/01/11 06:50:57;;;;;;;29.35;11.75;;;0.80;99.90;;;;;;4948207;28;20075;-69
2022/01/11 06:53:23;;;;;;;32.33;12.30;;;0.80;99.90;;;;;;4951223;28;20078;-70
2022/01/11 06:55:50;;;;;;;24.97;10.80;;;0.70;99.90;;;;;;4947390;28;20046;-70
2022/01/11 06:58:17;;;;;;;30.70;12.38;;;0.80;99.90;;;;;;4942984;28;20071;-70
2022/01/11 07:00:43;;;;;;;25.33;10.50;;;0.70;99.90;;;;;;4941781;28;20035;-75
2022/01/11 07:03:09;;;;;;;28.63;11.38;;;0.70;99.90;;;;;;4958984;28;20051;-72
2022/01/11 07:05:35;;;;;;;27.47;10.87;;;0.70;99.90;;;;;;4952480;28;20041;-73
2022/01/11 07:08:00;;;;;;;30.90;11.53;;;0.70;99.90;;;;;;4944952;28;20054;-71
2022/01/11 07:10:26;;;;;;;24.57;11.50;;;0.70;99.90;;;;;;4943493;28;20050;-73
2022/01/11 07:12:51;;;;;;;28.60;11.17;;;0.60;99.90;;;;;;4948752;28;20113;-73
2022/01/11 07:15:17;;;;;;;28.47;10.47;;;0.60;99.90;;;;;;4948405;28;20841;-71
2022/01/11 07:17:43;;;;;;;28.43;11.40;;;0.60;99.90;;;;;;4944625;29;20070;-70
2022/01/11 07:20:09;;;;;;;27.33;11.47;;;0.60;99.90;;;;;;4948139;28;20094;-74
2022/01/11 07:22:37;;;;;;;23.42;10.95;;;0.60;99.90;;;;;;4961713;28;20287;-73
2022/01/11 07:25:04;;;;;;;29.15;11.68;;;0.60;99.90;;;;;;4944245;28;20389;-70
2022/01/11 07:27:31;;;;;;;23.42;9.68;;;0.50;99.90;;;;;;4943986;28;20622;-70
2022/01/11 07:29:57;;;;;;;25.13;10.65;;;0.60;99.90;;;;;;4948414;28;20046;-70
2022/01/11 07:32:23;;;;;;;22.73;10.87;;;0.50;99.90;;;;;;4967509;28;20039;-70
2022/01/11 07:34:51;;;;;;;23.67;10.80;;;0.50;99.90;;;;;;4948358;28;20175;-70
2022/01/11 07:37:17;;;;;;;25.95;11.73;;;0.50;99.90;;;;;;4948555;28;20043;-70
2022/01/11 07:39:43;;;;;;;26.30;12.07;;;0.50;99.90;;;;;;4951493;28;20474;-70
2022/01/11 07:42:09;;;;;;;26.63;11.25;;;0.50;99.90;;;;;;4949349;29;20043;-69
2022/01/11 07:44:35;;;;;;;25.48;10.57;;;0.50;99.90;;;;;;4942451;28;20066;-70
2022/01/11 07:47:02;;;;;;;25.37;11.90;;;0.50;99.90;;;;;;4960726;28;20046;-70
2022/01/11 07:49:28;;;;;;;26.60;10.35;;;0.50;99.90;;;;;;4946677;28;20122;-70
2022/01/11 07:51:54;;;;;;;21.17;9.95;;;0.50;99.90;;;;;;4943959;28;20088;-70
2022/01/11 07:54:20;;;;;;;27.73;11.60;;;0.40;99.90;;;;;;4951370;28;20074;-70
2022/01/11 07:56:46;;;;;;;26.80;11.27;;;0.50;99.90;;;;;;4948637;28;20054;-70
2022/01/11 07:59:11;;;;;;;25.73;10.80;;;0.50;99.90;;;;;;4938880;28;20484;-70
2022/01/11 08:01:37;;;;;;;27.10;10.27;;;0.40;99.90;;;;;;4954527;28;20041;-70
2022/01/11 08:04:04;;;;;;;25.42;11.00;;;0.40;99.90;;;;;;4952215;28;20058;-70
2022/01/11 08:06:29;;;;;;;23.98;11.50;;;0.40;99.90;;;;;;4950725;28;20039;-70
2022/01/11 08:08:55;;;;;;;24.27;10.43;;;0.50;99.90;;;;;;4951432;28;20570;-70
2022/01/11 08:11:20;;;;;;;25.60;11.40;;;0.40;99.90;;;;;;4968077;28;20123;-70
2022/01/11 08:13:46;;;;;;;29.73;12.73;;;0.40;99.90;;;;;;4953858;28;20043;-70
2022/01/11 08:16:12;;;;;;;25.30;11.07;;;0.40;99.90;;;;;;4955087;28;20046;-70
2022/01/11 08:18:37;;;;;;;30.53;12.23;;;0.40;99.90;;;;;;4949637;29;20135;-72
2022/01/11 08:21:03;;;;;;;34.10;11.57;;;0.40;99.90;;;;;;4949990;28;20397;-72
2022/01/11 08:23:28;;;;;;;25.80;11.77;;;0.40;99.90;;;;;;4968537;28;20127;-71
2022/01/11 08:25:54;;;;;;;27.70;13.30;;;0.30;99.90;;;;;;4950963;28;20106;-70
2022/01/11 08:28:20;;;;;;;24.37;11.37;;;0.40;99.90;;;;;;4953227;28;20035;-70
2022/01/11 08:30:45;;;;;;;22.43;10.40;;;0.40;99.90;;;;;;4952355;28;20043;-70
2022/01/11 08:33:12;;;;;;;29.17;11.90;;;0.40;99.90;;;;;;4953010;28;20043;-69
2022/01/11 08:35:38;;;;;;;27.73;12.00;;;0.40;99.90;;;;;;4967988;28;20055;-70
2022/01/11 08:38:04;;;;;;;26.37;11.90;;;0.40;99.90;;;;;;4948151;28;20531;-70
2022/01/11 08:40:30;;;;;;;25.27;11.27;;;0.40;99.90;;;;;;4951857;29;20050;-70
2022/01/11 08:42:56;;;;;;;26.87;11.57;;;0.30;99.90;;;;;;4966968;28;20427;-69
2022/01/11 08:45:22;;;;;;;23.83;10.20;;;0.40;99.90;;;;;;4933225;29;20035;-69
2022/01/11 08:47:47;;;;;;;24.80;11.43;;;0.30;99.90;;;;;;4952731;28;20465;-69
2022/01/11 08:50:14;;;;;;;25.80;11.43;;;0.40;99.90;;;;;;4945024;28;20070;-70
2022/01/11 08:52:41;;;;;;;28.52;11.48;;;0.40;99.90;;;;;;4952668;28;20365;-70
2022/01/11 08:55:08;;;;;;;32.60;12.45;;;0.40;99.90;;;;;;4948793;29;20510;-70
2022/01/11 08:57:35;;;;;;;26.60;11.93;;;0.40;99.90;;;;;;4951392;28;20130;-69
2022/01/11 09:00:06;;;;;;;26.50;11.20;;;0.40;99.90;;;;;;4947404;28;20563;-70
2022/01/11 09:02:35;;;;;;;27.27;11.70;;;0.50;99.90;;;;;;4960473;28;20043;-70
2022/01/11 09:05:01;;;;;;;24.98;11.23;;;0.40;99.90;;;;;;4966987;28;20047;-69
2022/01/11 09:07:26;;;;;;;28.70;12.47;;;0.50;99.90;;;;;;4949872;28;20055;-69
2022/01/11 09:09:52;;;;;;;30.33;13.10;;;0.50;99.90;;;;;;4946495;29;20047;-69
2022/01/11 09:12:19;;;;;;;36.00;13.83;;;0.50;99.90;;;;;;4950380;28;20313;-70
2022/01/11 09:14:45;;;;;;;29.90;12.23;;;0.50;99.90;;;;;;4947933;28;20047;-69
2022/01/11 09:17:11;;;;;;;35.58;13.90;;;0.50;99.90;;;;;;4940680;28;20140;-71
2022/01/11 09:19:37;;;;;;;29.35;13.10;;;0.50;99.90;;;;;;4946273;28;20043;-70
2022/01/11 09:22:03;;;;;;;27.53;13.33;;;0.50;99.90;;;;;;4947575;28;20039;-71
2022/01/11 09:24:29;;;;;;;28.92;13.23;;;0.50;99.90;;;;;;4958970;28;20515;-71
2022/01/11 09:27:02;;;;;;;30.10;12.60;;;0.50;99.90;;;;;;4947068;28;20546;-72
2022/01/11 09:29:28;;;;;;;28.58;12.52;;;0.50;99.90;;;;;;4948334;28;20400;-70
2022/01/11 09:31:57;;;;;;;30.20;12.23;;;0.50;99.90;;;;;;4945367;28;20368;-70
2022/01/11 09:34:23;;;;;;;31.27;13.02;;;0.50;99.90;;;;;;4931297;28;20062;-71
2022/01/11 09:36:49;;;;;;;33.70;12.47;;;0.50;99.90;;;;;;4947631;29;20039;-71
2022/01/11 09:39:15;;;;;;;35.58;13.88;;;0.60;99.90;;;;;;4942654;28;20048;-70
2022/01/11 09:41:41;;;;;;;27.07;12.67;;;0.60;99.90;;;;;;4947916;28;20074;-72
2022/01/11 09:44:07;;;;;;;32.47;13.05;;;0.60;99.90;;;;;;4960834;28;20287;-71
2022/01/11 09:46:33;;;;;;;;;;;0.70;99.90;;;;;;4950849;28;20047;-72
2022/01/11 09:48:59;;;;;;;33.20;14.02;;;0.70;99.90;;;;;;4943488;28;20228;-72
2022/01/11 09:51:25;;;;;;;31.38;13.68;;;0.70;99.90;;;;;;4943172;28;20138;-77
2022/01/11 09:53:51;;;;;;;33.30;15.10;;;0.70;99.90;;;;;;4943045;28;20038;-75
2022/01/11 09:56:17;;;;;;;;;;;0.70;99.90;;;;;;4946064;28;20062;-71
2022/01/11 09:58:44;;;;;;;30.90;13.68;;;0.70;99.90;;;;;;4946529;28;19926;-72
2022/01/11 10:01:10;;;;;;;33.92;14.70;;;0.80;99.90;;;;;;4946984;28;20224;-74
2022/01/11 10:04:06;;;;;;;32.63;13.00;;;0.80;99.90;;;;;;4944464;28;20055;-74
2022/01/11 10:06:39;;;;;;;31.23;14.27;;;0.80;99.90;;;;;;4935930;28;20046;-75
2022/01/11 10:09:18;;;;;;;32.33;13.68;;;0.90;99.90;;;;;;4956054;28;20122;-77
2022/01/11 10:11:51;;;;;;;39.05;14.65;;;0.90;99.90;;;;;;4943110;28;20252;-75
2022/01/11 10:14:17;;;;;;;32.13;14.15;;;1.00;99.90;;;;;;4938302;28;20039;-77
2022/01/11 10:16:43;;;;;;;39.43;14.77;;;1.00;99.90;;;;;;4957126;28;20416;-74
2022/01/11 10:19:20;;;;;;;42.37;15.57;;;1.10;99.90;;;;;;4936131;28;20141;-77
2022/01/11 10:21:47;;;;;;;32.45;14.35;;;1.20;99.90;;;;;;4945781;28;20047;-70
2022/01/11 10:24:37;;;;;;;35.63;14.20;;;1.20;99.90;;;;;;4959944;28;20102;-70
2022/01/11 10:27:13;;;;;;;34.08;14.50;;;1.30;99.90;;;;;;4939776;28;20433;-70
2022/01/11 10:29:42;;;;;;;35.75;15.02;;;1.40;99.90;;;;;;4964548;28;20090;-74
2022/01/11 10:32:25;;;;;;;36.30;15.00;;;1.50;99.90;;;;;;4946478;29;20110;-70
2022/01/11 10:34:57;;;;;;;35.88;14.32;;;1.70;99.90;;;;;;4947463;29;20511;-70
2022/01/11 10:37:39;;;;;;;29.35;13.02;;;1.80;99.90;;;;;;4944918;28;20226;-71
2022/01/11 10:40:11;;;;;;;35.28;14.70;;;1.80;99.90;;;;;;4948658;28;20546;-71
2022/01/11 10:42:44;;;;;;;29.52;13.85;;;1.90;99.90;;;;;;4946299;29;20122;-70
2022/01/11 10:45:13;;;;;;;30.95;13.27;;;2.00;99.90;;;;;;4943194;29;20043;-70
2022/01/11 10:47:47;;;;;;;28.52;13.15;;;2.20;99.90;;;;;;4946869;28;20039;-71
2022/01/11 10:50:37;;;;;;;31.75;13.60;;;2.30;99.90;;;;;;4958315;28;20051;-71
2022/01/11 10:53:10;;;;;;;35.50;13.55;;;2.40;99.90;;;;;;4961055;28;20175;-70
2022/01/11 10:55:36;;;;;;;30.00;12.88;;;2.40;99.90;;;;;;4961757;28;20166;-71
2022/01/11 10:58:06;;;;;;;31.27;13.40;;;2.40;99.90;;;;;;4945714;28;20126;-71
2022/01/11 11:00:39;;;;;;;29.88;13.25;;;2.50;99.90;;;;;;4948143;28;20043;-71
2022/01/11 11:03:35;;;;;;;27.30;11.77;;;2.60;99.90;;;;;;4949044;29;20035;-70
2022/01/11 11:06:07;;;;;;;25.05;12.63;;;2.80;99.90;;;;;;4945813;29;20058;-71
2022/01/11 11:08:37;;;;;;;29.83;13.23;;;2.90;99.90;;;;;;4942439;28;20123;-70
2022/01/11 11:11:04;;;;;;;29.65;13.48;;;3.00;99.90;;;;;;4953135;28;20058;-71
2022/01/11 11:13:37;;;;;;;;;;;3.00;99.90;;;;;;4945443;28;20118;-70
2022/01/11 11:16:16;;;;;;;24.80;11.63;;;3.10;99.90;;;;;;4959606;28;19922;-70
2022/01/11 11:18:49;;;;;;;27.45;11.98;;;3.10;99.90;;;;;;4965834;28;20055;-71
2022/01/11 11:21:32;;;;;;;29.88;13.40;;;3.10;99.90;;;;;;4946843;28;20289;-71
2022/01/11 11:24:02;;;;;;;26.48;11.93;;;3.10;99.90;;;;;;4950552;28;20047;-71
2022/01/11 11:26:37;;;;;;;24.52;12.23;;;3.10;99.90;;;;;;4949590;28;20043;-71
2022/01/11 11:29:07;;;;;;;22.20;10.85;;;3.10;99.90;;;;;;4941380;29;20047;-71
2022/01/11 11:31:34;;;;;;;25.83;12.45;;;3.00;99.90;;;;;;4965587;28;20067;-70
2022/01/11 11:34:01;;;;;;;22.75;10.95;;;3.00;99.90;;;;;;4949539;28;20186;-70
2022/01/11 11:36:28;;;;;;;24.17;11.07;;;3.00;99.90;;;;;;4967416;28;20079;-71
2022/01/11 11:38:59;;;;;;;26.30;11.70;;;3.00;99.90;;;;;;4944748;28;20118;-70
2022/01/11 11:41:26;;;;;;;31.88;11.85;;;3.00;99.90;;;;;;4962374;28;20065;-71
2022/01/11 11:44:25;;;;;;;27.17;11.80;;;3.10;99.90;;;;;;4968381;28;20049;-70
2022/01/11 11:47:00;;;;;;;25.80;12.10;;;3.10;99.90;;;;;;4970362;28;20063;-71
2022/01/11 11:49:47;;;;;;;21.35;10.30;;;3.10;99.90;;;;;;4949058;28;20035;-71
2022/01/11 11:52:20;;;;;;;26.15;12.15;;;3.10;99.90;;;;;;4961855;28;20050;-70
2022/01/11 11:54:52;;;;;;;24.63;12.27;;;3.10;99.90;;;;;;4952601;28;20122;-71
2022/01/11 11:57:19;;;;;;;34.47;12.23;;;3.10;99.90;;;;;;4951556;28;20081;-71
2022/01/11 12:00:03;;;;;;;25.17;12.07;;;3.10;99.90;;;;;;4947811;29;20043;-70
2022/01/11 12:02:35;;;;;;;25.45;12.45;;;3.10;99.90;;;;;;4941638;29;20077;-70
2022/01/11 12:05:04;;;;;;;29.70;12.25;;;3.10;99.90;;;;;;4934604;28;20039;-70
2022/01/11 12:07:41;;;;;;;25.48;11.27;;;3.10;99.90;;;;;;4950590;28;20031;-71
2022/01/11 12:10:16;;;;;;;24.95;11.75;;;3.10;99.90;;;;;;4965010;28;20075;-71
2022/01/11 12:12:53;;;;;;;28.50;11.93;;;3.10;99.90;;;;;;4950462;29;20047;-70
2022/01/11 12:15:21;;;;;;;23.67;11.63;;;3.20;99.90;;;;;;4966957;28;20047;-71
2022/01/11 12:17:48;;;;;;;23.73;10.75;;;3.10;99.90;;;;;;4949575;28;20056;-70
2022/01/11 12:20:44;;;;;;;25.83;11.50;;;3.20;99.90;;;;;;4947510;28;20051;-70
2022/01/11 12:23:11;;;;;;;24.40;10.35;;;3.20;99.90;;;;;;4954887;28;20035;-70
2022/01/11 12:25:43;;;;;;;25.17;10.73;;;3.20;99.90;;;;;;4967304;28;20428;-70
2022/01/11 12:28:17;;;;;;;23.77;11.90;;;3.20;99.90;;;;;;4954076;28;20309;-70
2022/01/11 12:30:44;;;;;;;23.42;10.40;;;3.20;99.90;;;;;;4964493;28;20601;-71
2022/01/11 12:33:16;;;;;;;24.17;10.40;;;3.20;99.90;;;;;;4967769;28;20039;-70
2022/01/11 12:35:58;;;;;;;29.10;11.68;;;3.30;99.90;;;;;;4952466;28;20120;-70
2022/01/11 12:38:26;;;;;;;20.23;9.73;;;3.30;99.90;;;;;;4953098;29;20047;-70
2022/01/11 12:40:52;;;;;;;23.73;10.68;;;3.30;99.90;;;;;;4963424;28;20047;-70
2022/01/11 12:43:38;;;;;;;25.35;11.65;;;3.30;99.90;;;;;;4967122;28;20063;-70